sensor_id;sensor_type;location;lat;lon;timestamp;pressure;altitude;pressure_sealevel;temperature;humidity
67740;BME280;54536;50.090;14.420;2022-08-23T00:01:56;99352.97;;;18.32;71.09
67740;BME280;54536;50.090;14.420;2022-08-23T00:05:23;99355.72;;;18.24;71.05
67740;BME280;54536;50.090;14.420;2022-08-23T00:08:13;99353.00;;;18.17;71.37
67740;BME280;54536;50.090;14.420;2022-08-23T00:11:53;99345.41;;;17.99;72.03
67740;BME280;54536;50.090;14.420;2022-08-23T00:15:09;99344.44;;;17.86;73.44
67740;BME280;54536;50.090;14.420;2022-08-23T00:18:12;99352.28;;;17.94;73.26
67740;BME280;54536;50.090;14.420;2022-08-23T00:24:49;99342.84;;;18.06;72.66
67740;BME280;54536;50.090;14.420;2022-08-23T00:27:54;99343.66;;;18.07;72.90
67740;BME280;54536;50.090;14.420;2022-08-23T00:31:26;99342.19;;;18.04;72.59
67740;BME280;54536;50.090;14.420;2022-08-23T00:34:24;99348.16;;;18.06;73.08
67740;BME280;54536;50.090;14.420;2022-08-23T00:37:24;99334.03;;;18.06;72.63
67740;BME280;54536;50.090;14.420;2022-08-23T00:40:44;99332.28;;;18.13;72.33
67740;BME280;54536;50.090;14.420;2022-08-23T00:44:04;99335.31;;;18.10;72.35
67740;BME280;54536;50.090;14.420;2022-08-23T00:47:16;99330.34;;;18.07;72.98
67740;BME280;54536;50.090;14.420;2022-08-23T00:50:56;99331.53;;;18.04;72.86
67740;BME280;54536;50.090;14.420;2022-08-23T00:54:17;99330.66;;;17.97;73.37
67740;BME280;54536;50.090;14.420;2022-08-23T00:57:10;99329.09;;;18.02;72.25
67740;BME280;54536;50.090;14.420;2022-08-23T00:59:46;99328.41;;;18.15;72.51
67740;BME280;54536;50.090;14.420;2022-08-23T01:03:10;99331.69;;;18.17;72.16
67740;BME280;54536;50.090;14.420;2022-08-23T01:06:05;99333.25;;;18.27;71.58
67740;BME280;54536;50.090;14.420;2022-08-23T01:09:06;99328.88;;;18.19;72.18
67740;BME280;54536;50.090;14.420;2022-08-23T01:12:02;99342.53;;;18.16;71.98
67740;BME280;54536;50.090;14.420;2022-08-23T01:15:18;99328.94;;;18.25;71.61
67740;BME280;54536;50.090;14.420;2022-08-23T01:18:39;99327.78;;;18.13;72.47
67740;BME280;54536;50.090;14.420;2022-08-23T01:25:32;99323.47;;;18.12;72.21
67740;BME280;54536;50.090;14.420;2022-08-23T01:28:29;99319.44;;;18.01;73.06
67740;BME280;54536;50.090;14.420;2022-08-23T01:31:09;99321.63;;;18.13;72.62
67740;BME280;54536;50.090;14.420;2022-08-23T01:34:20;99324.09;;;18.14;72.32
67740;BME280;54536;50.090;14.420;2022-08-23T01:37:11;99324.09;;;18.14;72.45
67740;BME280;54536;50.090;14.420;2022-08-23T01:40:13;99316.59;;;18.03;72.50
67740;BME280;54536;50.090;14.420;2022-08-23T01:43:12;99323.03;;;18.09;71.96
67740;BME280;54536;50.090;14.420;2022-08-23T01:46:28;99318.31;;;18.11;72.19
67740;BME280;54536;50.090;14.420;2022-08-23T01:49:35;99324.94;;;18.15;72.37
67740;BME280;54536;50.090;14.420;2022-08-23T01:53:04;99323.03;;;17.94;72.41
67740;BME280;54536;50.090;14.420;2022-08-23T02:00:25;99319.34;;;18.10;72.07
67740;BME280;54536;50.090;14.420;2022-08-23T02:03:17;99321.47;;;17.99;72.89
67740;BME280;54536;50.090;14.420;2022-08-23T02:06:29;99321.84;;;17.96;72.73
67740;BME280;54536;50.090;14.420;2022-08-23T02:09:54;99322.00;;;17.95;73.05
67740;BME280;54536;50.090;14.420;2022-08-23T02:13:35;99316.06;;;17.78;73.44
67740;BME280;54536;50.090;14.420;2022-08-23T02:16:46;99320.00;;;17.67;73.75
67740;BME280;54536;50.090;14.420;2022-08-23T02:19:35;99324.13;;;17.85;73.82
67740;BME280;54536;50.090;14.420;2022-08-23T02:22:25;99326.97;;;17.98;72.93
67740;BME280;54536;50.090;14.420;2022-08-23T02:25:06;99322.56;;;18.05;72.27
67740;BME280;54536;50.090;14.420;2022-08-23T02:27:47;99330.44;;;18.13;72.64
67740;BME280;54536;50.090;14.420;2022-08-23T02:30:18;99331.91;;;18.16;71.62
67740;BME280;54536;50.090;14.420;2022-08-23T02:32:53;99327.91;;;18.05;71.96
67740;BME280;54536;50.090;14.420;2022-08-23T02:35:30;99330.06;;;18.01;72.49
67740;BME280;54536;50.090;14.420;2022-08-23T02:38:13;99331.09;;;18.15;72.08
67740;BME280;54536;50.090;14.420;2022-08-23T02:41:09;99330.44;;;18.13;72.30
67740;BME280;54536;50.090;14.420;2022-08-23T02:44:01;99325.03;;;18.07;73.01
67740;BME280;54536;50.090;14.420;2022-08-23T02:47:18;99333.84;;;18.07;72.97
67740;BME280;54536;50.090;14.420;2022-08-23T02:50:10;99332.56;;;18.03;72.91
67740;BME280;54536;50.090;14.420;2022-08-23T02:53:10;99334.78;;;17.99;73.23
67740;BME280;54536;50.090;14.420;2022-08-23T02:56:07;99329.25;;;18.01;73.96
67740;BME280;54536;50.090;14.420;2022-08-23T02:59:12;99334.38;;;18.17;73.13
67740;BME280;54536;50.090;14.420;2022-08-23T03:01:52;99334.19;;;18.19;72.89
67740;BME280;54536;50.090;14.420;2022-08-23T03:04:58;99330.25;;;18.15;73.50
67740;BME280;54536;50.090;14.420;2022-08-23T03:08:12;99331.91;;;18.16;72.83
67740;BME280;54536;50.090;14.420;2022-08-23T03:14:48;99331.84;;;18.31;72.49
67740;BME280;54536;50.090;14.420;2022-08-23T03:17:54;99335.16;;;18.33;72.64
67740;BME280;54536;50.090;14.420;2022-08-23T03:20:25;99332.69;;;18.31;72.16
67740;BME280;54536;50.090;14.420;2022-08-23T03:27:15;99335.53;;;18.30;72.53
67740;BME280;54536;50.090;14.420;2022-08-23T03:30:39;99335.75;;;18.28;73.02
67740;BME280;54536;50.090;14.420;2022-08-23T03:34:13;99332.44;;;18.26;71.99
67740;BME280;54536;50.090;14.420;2022-08-23T03:37:43;99338.03;;;18.31;72.41
67740;BME280;54536;50.090;14.420;2022-08-23T03:41:05;99345.16;;;18.31;72.64
67740;BME280;54536;50.090;14.420;2022-08-23T03:44:05;99349.28;;;18.33;72.73
67740;BME280;54536;50.090;14.420;2022-08-23T03:49:53;99349.28;;;18.33;72.93
67740;BME280;54536;50.090;14.420;2022-08-23T03:52:51;99343.78;;;18.35;72.40
67740;BME280;54536;50.090;14.420;2022-08-23T03:59:50;99339.75;;;18.39;72.41
67740;BME280;54536;50.090;14.420;2022-08-23T04:02:58;99342.13;;;18.34;72.63
67740;BME280;54536;50.090;14.420;2022-08-23T04:09:58;99350.56;;;18.37;72.83
67740;BME280;54536;50.090;14.420;2022-08-23T04:13:07;99350.38;;;18.39;72.75
67740;BME280;54536;50.090;14.420;2022-08-23T04:16:41;99350.63;;;18.44;72.49
67740;BME280;54536;50.090;14.420;2022-08-23T04:19:39;99351.47;;;18.44;72.96
67740;BME280;54536;50.090;14.420;2022-08-23T04:22:27;99353.94;;;18.46;72.28
67740;BME280;54536;50.090;14.420;2022-08-23T04:25:11;99358.19;;;18.40;73.01
67740;BME280;54536;50.090;14.420;2022-08-23T04:27:47;99356.72;;;18.38;73.12
67740;BME280;54536;50.090;14.420;2022-08-23T04:30:27;99353.66;;;18.41;72.73
67740;BME280;54536;50.090;14.420;2022-08-23T04:33:03;99353.66;;;18.41;73.24
67740;BME280;54536;50.090;14.420;2022-08-23T04:35:31;99351.84;;;18.41;73.12
67740;BME280;54536;50.090;14.420;2022-08-23T04:38:12;99351.28;;;18.46;72.85
67740;BME280;54536;50.090;14.420;2022-08-23T04:40:46;99359.28;;;18.46;72.86
67740;BME280;54536;50.090;14.420;2022-08-23T04:43:52;99357.88;;;18.50;72.56
67740;BME280;54536;50.090;14.420;2022-08-23T04:47:18;99351.72;;;18.49;72.76
67740;BME280;54536;50.090;14.420;2022-08-23T04:50:13;99365.78;;;18.43;73.54
67740;BME280;54536;50.090;14.420;2022-08-23T04:53:20;99356.88;;;18.51;72.63
67740;BME280;54536;50.090;14.420;2022-08-23T04:56:08;99369.28;;;18.44;73.40
67740;BME280;54536;50.090;14.420;2022-08-23T04:58:46;99377.09;;;18.45;73.13
67740;BME280;54536;50.090;14.420;2022-08-23T05:01:33;99371.50;;;18.40;74.34
67740;BME280;54536;50.090;14.420;2022-08-23T05:04:20;99377.34;;;18.51;73.54
67740;BME280;54536;50.090;14.420;2022-08-23T05:06:47;99375.44;;;18.44;73.51
67740;BME280;54536;50.090;14.420;2022-08-23T05:09:41;99374.81;;;18.42;74.16
67740;BME280;54536;50.090;14.420;2022-08-23T05:12:31;99375.81;;;18.41;74.54
67740;BME280;54536;50.090;14.420;2022-08-23T05:18:51;99374.97;;;18.41;74.14
67740;BME280;54536;50.090;14.420;2022-08-23T05:21:56;99378.72;;;18.46;73.40
67740;BME280;54536;50.090;14.420;2022-08-23T05:24:31;99380.19;;;18.49;73.84
67740;BME280;54536;50.090;14.420;2022-08-23T05:27:42;99385.16;;;18.52;73.06
67740;BME280;54536;50.090;14.420;2022-08-23T05:34:39;99386.47;;;18.41;73.77
67740;BME280;54536;50.090;14.420;2022-08-23T05:37:31;99383.44;;;18.44;74.14
67740;BME280;54536;50.090;14.420;2022-08-23T05:40:51;99382.41;;;18.45;74.25
67740;BME280;54536;50.090;14.420;2022-08-23T06:02:56;99399.84;;;18.48;75.68
67740;BME280;54536;50.090;14.420;2022-08-23T06:06:21;99401.59;;;18.41;75.50
67740;BME280;54536;50.090;14.420;2022-08-23T06:09:41;99398.84;;;18.49;75.22
67740;BME280;54536;50.090;14.420;2022-08-23T06:13:13;99404.88;;;18.58;74.79
67740;BME280;54536;50.090;14.420;2022-08-23T06:15:55;99404.63;;;18.53;74.92
67740;BME280;54536;50.090;14.420;2022-08-23T06:19:28;99398.47;;;18.37;76.16
67740;BME280;54536;50.090;14.420;2022-08-23T06:22:41;99403.06;;;18.43;75.60
67740;BME280;54536;50.090;14.420;2022-08-23T06:31:53;99402.91;;;18.45;75.59
67740;BME280;54536;50.090;14.420;2022-08-23T06:35:03;99407.19;;;18.46;75.60
67740;BME280;54536;50.090;14.420;2022-08-23T06:38:38;99412.16;;;18.49;75.25
67740;BME280;54536;50.090;14.420;2022-08-23T06:53:33;99426.31;;;18.86;74.00
67740;BME280;54536;50.090;14.420;2022-08-23T07:04:15;99445.03;;;18.92;74.04
67740;BME280;54536;50.090;14.420;2022-08-23T07:07:23;99440.16;;;18.96;73.65
67740;BME280;54536;50.090;14.420;2022-08-23T07:11:04;99440.34;;;18.94;72.96
67740;BME280;54536;50.090;14.420;2022-08-23T07:14:31;99453.03;;;18.92;73.37
67740;BME280;54536;50.090;14.420;2022-08-23T07:29:50;99457.50;;;18.70;76.54
67740;BME280;54536;50.090;14.420;2022-08-23T11:33:07;99573.16;;;20.69;68.11
67740;BME280;54536;50.090;14.420;2022-08-23T11:47:41;99562.44;;;21.11;66.54
67740;BME280;54536;50.090;14.420;2022-08-23T12:54:54;99587.06;;;21.54;65.07
67740;BME280;54536;50.090;14.420;2022-08-23T12:58:32;99583.19;;;21.70;64.58
67740;BME280;54536;50.090;14.420;2022-08-23T13:02:03;99586.28;;;21.73;64.19
67740;BME280;54536;50.090;14.420;2022-08-23T13:05:59;99583.59;;;21.67;64.43
67740;BME280;54536;50.090;14.420;2022-08-23T13:17:17;99592.09;;;21.16;66.10
67740;BME280;54536;50.090;14.420;2022-08-23T13:20:40;99594.56;;;21.17;66.10
67740;BME280;54536;50.090;14.420;2022-08-23T13:23:35;99593.75;;;21.17;66.02
67740;BME280;54536;50.090;14.420;2022-08-23T13:26:41;99594.41;;;21.32;66.26
67740;BME280;54536;50.090;14.420;2022-08-23T13:33:33;99586.25;;;21.54;64.96
67740;BME280;54536;50.090;14.420;2022-08-23T14:17:55;99595.09;;;21.47;65.46
67740;BME280;54536;50.090;14.420;2022-08-23T14:21:26;99601.91;;;21.57;65.32
67740;BME280;54536;50.090;14.420;2022-08-23T14:24:33;99596.56;;;21.57;65.55
67740;BME280;54536;50.090;14.420;2022-08-23T14:27:47;99605.16;;;21.39;66.58
67740;BME280;54536;50.090;14.420;2022-08-23T14:33:41;99600.03;;;21.44;65.89
67740;BME280;54536;50.090;14.420;2022-08-23T14:37:10;99602.69;;;21.44;66.44
67740;BME280;54536;50.090;14.420;2022-08-23T14:48:52;99601.06;;;21.43;66.59
67740;BME280;54536;50.090;14.420;2022-08-23T14:52:01;99606.19;;;21.38;67.01
67740;BME280;54536;50.090;14.420;2022-08-23T14:55:14;99612.56;;;21.37;67.09
67740;BME280;54536;50.090;14.420;2022-08-23T15:13:11;99607.59;;;21.34;67.35
67740;BME280;54536;50.090;14.420;2022-08-23T15:21:59;99607.50;;;21.14;68.08
67740;BME280;54536;50.090;14.420;2022-08-23T15:25:32;99611.63;;;21.10;68.09
67740;BME280;54536;50.090;14.420;2022-08-23T15:28:38;99604.09;;;21.33;67.50
67740;BME280;54536;50.090;14.420;2022-08-23T15:32:06;99604.88;;;21.27;67.78
67740;BME280;54536;50.090;14.420;2022-08-23T15:35:18;99607.34;;;21.28;67.97
67740;BME280;54536;50.090;14.420;2022-08-23T15:38:18;99600.72;;;21.11;68.27
67740;BME280;54536;50.090;14.420;2022-08-23T15:41:25;99604.19;;;21.12;68.49
67740;BME280;54536;50.090;14.420;2022-08-23T15:44:22;99607.13;;;21.17;68.58
67740;BME280;54536;50.090;14.420;2022-08-23T15:47:45;99610.59;;;21.17;68.76
67740;BME280;54536;50.090;14.420;2022-08-23T15:54:07;99609.19;;;21.21;68.13
67740;BME280;54536;50.090;14.420;2022-08-23T17:01:07;99606.94;;;21.32;67.57
67740;BME280;54536;50.090;14.420;2022-08-23T17:04:06;99606.72;;;21.20;67.84
67740;BME280;54536;50.090;14.420;2022-08-23T17:06:55;99604.47;;;21.23;67.81
67740;BME280;54536;50.090;14.420;2022-08-23T17:20:15;99627.28;;;21.19;67.90
67740;BME280;54536;50.090;14.420;2022-08-23T17:26:29;99631.56;;;21.14;68.12
67740;BME280;54536;50.090;14.420;2022-08-23T17:32:55;99637.81;;;21.27;68.15
67740;BME280;54536;50.090;14.420;2022-08-23T17:35:37;99635.91;;;21.21;67.50
67740;BME280;54536;50.090;14.420;2022-08-23T17:41:30;99638.81;;;21.20;68.22
67740;BME280;54536;50.090;14.420;2022-08-23T17:50:13;99645.16;;;21.19;67.53
67740;BME280;54536;50.090;14.420;2022-08-23T17:53:20;99651.53;;;21.18;67.75
67740;BME280;54536;50.090;14.420;2022-08-23T17:58:48;99659.97;;;21.15;68.08
67740;BME280;54536;50.090;14.420;2022-08-23T18:08:19;99676.88;;;21.22;67.75
67740;BME280;54536;50.090;14.420;2022-08-23T18:22:11;99686.09;;;21.13;68.53
67740;BME280;54536;50.090;14.420;2022-08-23T18:25:12;99687.13;;;21.18;68.23
67740;BME280;54536;50.090;14.420;2022-08-23T18:28:16;99688.81;;;21.19;68.34
67740;BME280;54536;50.090;14.420;2022-08-23T18:30:54;99692.06;;;21.15;68.26
67740;BME280;54536;50.090;14.420;2022-08-23T18:33:34;99694.31;;;21.11;68.21
67740;BME280;54536;50.090;14.420;2022-08-23T18:36:31;99700.91;;;21.15;68.21
67740;BME280;54536;50.090;14.420;2022-08-23T18:39:22;99701.31;;;21.19;68.27
67740;BME280;54536;50.090;14.420;2022-08-23T18:42:17;99705.25;;;21.16;68.17
67740;BME280;54536;50.090;14.420;2022-08-23T18:48:29;99713.06;;;21.18;68.30
67740;BME280;54536;50.090;14.420;2022-08-23T18:51:11;99712.88;;;21.19;68.22
67740;BME280;54536;50.090;14.420;2022-08-23T18:54:10;99730.13;;;21.17;68.23
67740;BME280;54536;50.090;14.420;2022-08-23T18:56:51;99721.72;;;21.20;68.10
67740;BME280;54536;50.090;14.420;2022-08-23T18:59:34;99731.78;;;21.18;68.36
67740;BME280;54536;50.090;14.420;2022-08-23T19:02:55;99732.56;;;21.12;68.71
67740;BME280;54536;50.090;14.420;2022-08-23T19:09:42;99734.88;;;21.21;68.38
67740;BME280;54536;50.090;14.420;2022-08-23T19:13:04;99734.44;;;21.18;68.35
67740;BME280;54536;50.090;14.420;2022-08-23T19:18:33;99737.72;;;21.13;68.53
67740;BME280;54536;50.090;14.420;2022-08-23T19:21:33;99743.28;;;21.18;68.42
67740;BME280;54536;50.090;14.420;2022-08-23T19:24:32;99736.94;;;21.19;68.61
67740;BME280;54536;50.090;14.420;2022-08-23T19:27:29;99734.28;;;21.19;68.45
67740;BME280;54536;50.090;14.420;2022-08-23T19:30:12;99737.53;;;21.15;68.69
67740;BME280;54536;50.090;14.420;2022-08-23T19:32:55;99744.50;;;21.09;68.92
67740;BME280;54536;50.090;14.420;2022-08-23T19:45:28;99740.19;;;21.15;68.89
67740;BME280;54536;50.090;14.420;2022-08-23T19:48:19;99742.47;;;21.18;69.29
67740;BME280;54536;50.090;14.420;2022-08-23T19:54:23;99745.41;;;21.23;68.71
67740;BME280;54536;50.090;14.420;2022-08-23T19:57:07;99744.97;;;21.19;69.02
67740;BME280;54536;50.090;14.420;2022-08-23T19:59:43;99745.78;;;21.20;68.66
67740;BME280;54536;50.090;14.420;2022-08-23T20:02:37;99745.31;;;21.44;67.54
67740;BME280;54536;50.090;14.420;2022-08-23T20:05:29;99741.84;;;21.44;67.79
67740;BME280;54536;50.090;14.420;2022-08-23T20:22:45;99744.78;;;21.27;67.96
67740;BME280;54536;50.090;14.420;2022-08-23T20:31:22;99748.19;;;21.36;67.65
67740;BME280;54536;50.090;14.420;2022-08-23T20:34:36;99747.56;;;21.41;67.84
67740;BME280;54536;50.090;14.420;2022-08-23T20:37:17;99756.63;;;21.40;67.55
67740;BME280;54536;50.090;14.420;2022-08-23T20:40:02;99755.41;;;21.42;67.10
67740;BME280;54536;50.090;14.420;2022-08-23T20:42:59;99755.59;;;21.41;67.93
67740;BME280;54536;50.090;14.420;2022-08-23T20:49:09;99758.53;;;21.46;67.76
67740;BME280;54536;50.090;14.420;2022-08-23T20:51:41;99762.84;;;21.47;67.36
67740;BME280;54536;50.090;14.420;2022-08-23T20:57:23;99773.13;;;21.43;67.86
67740;BME280;54536;50.090;14.420;2022-08-23T21:00:05;99758.72;;;21.44;67.47
67740;BME280;54536;50.090;14.420;2022-08-23T21:06:35;99768.16;;;21.40;67.82
67740;BME280;54536;50.090;14.420;2022-08-23T21:11:40;99766.31;;;21.41;67.47
67740;BME280;54536;50.090;14.420;2022-08-23T21:14:30;99770.44;;;21.43;67.33
67740;BME280;54536;50.090;14.420;2022-08-23T21:17:06;99759.94;;;21.42;67.49
67740;BME280;54536;50.090;14.420;2022-08-23T21:19:37;99759.75;;;21.43;67.21
67740;BME280;54536;50.090;14.420;2022-08-23T21:24:40;99769.63;;;21.43;67.39
67740;BME280;54536;50.090;14.420;2022-08-23T21:27:10;99764.84;;;21.38;67.45
67740;BME280;54536;50.090;14.420;2022-08-23T21:29:37;99757.47;;;21.40;67.50
67740;BME280;54536;50.090;14.420;2022-08-23T21:32:15;99759.09;;;21.41;67.44
67740;BME280;54536;50.090;14.420;2022-08-23T21:34:43;99750.25;;;21.41;67.17
67740;BME280;54536;50.090;14.420;2022-08-23T21:37:12;99748.63;;;21.40;67.28
67740;BME280;54536;50.090;14.420;2022-08-23T21:39:40;99754.34;;;21.37;67.09
67740;BME280;54536;50.090;14.420;2022-08-23T21:42:15;99743.00;;;21.35;67.28
67740;BME280;54536;50.090;14.420;2022-08-23T21:44:44;99750.84;;;21.36;67.69
67740;BME280;54536;50.090;14.420;2022-08-23T21:47:15;99750.56;;;21.31;67.58
67740;BME280;54536;50.090;14.420;2022-08-23T21:49:41;99749.97;;;21.29;67.95
67740;BME280;54536;50.090;14.420;2022-08-23T21:52:08;99743.97;;;21.27;67.84
67740;BME280;54536;50.090;14.420;2022-08-23T21:54:35;99741.09;;;21.28;68.02
67740;BME280;54536;50.090;14.420;2022-08-23T21:57:05;99741.94;;;21.29;67.44
67740;BME280;54536;50.090;14.420;2022-08-23T21:59:40;99743.97;;;21.27;67.50
67740;BME280;54536;50.090;14.420;2022-08-23T22:02:07;99739.03;;;21.24;67.85
67740;BME280;54536;50.090;14.420;2022-08-23T22:04:34;99734.31;;;21.26;67.90
67740;BME280;54536;50.090;14.420;2022-08-23T22:07:05;99734.09;;;21.27;67.71
67740;BME280;54536;50.090;14.420;2022-08-23T22:09:32;99728.34;;;21.31;67.99
67740;BME280;54536;50.090;14.420;2022-08-23T22:12:02;99728.56;;;21.29;67.58
67740;BME280;54536;50.090;14.420;2022-08-23T22:14:29;99735.94;;;21.27;67.71
67740;BME280;54536;50.090;14.420;2022-08-23T22:16:59;99729.97;;;21.25;68.12
67740;BME280;54536;50.090;14.420;2022-08-23T22:19:27;99733.28;;;21.27;67.59
67740;BME280;54536;50.090;14.420;2022-08-23T22:21:56;99739.84;;;21.24;68.01
67740;BME280;54536;50.090;14.420;2022-08-23T22:24:23;99729.16;;;21.24;67.97
67740;BME280;54536;50.090;14.420;2022-08-23T22:26:59;99735.94;;;21.27;67.77
67740;BME280;54536;50.090;14.420;2022-08-23T22:29:33;99740.84;;;21.17;68.05
67740;BME280;54536;50.090;14.420;2022-08-23T22:32:05;99729.53;;;21.21;68.21
67740;BME280;54536;50.090;14.420;2022-08-23T22:34:32;99732.47;;;21.26;68.06
67740;BME280;54536;50.090;14.420;2022-08-23T22:37:02;99725.25;;;21.27;68.04
67740;BME280;54536;50.090;14.420;2022-08-23T22:39:29;99727.09;;;21.26;68.02
67740;BME280;54536;50.090;14.420;2022-08-23T22:41:56;99724.81;;;21.23;68.20
67740;BME280;54536;50.090;14.420;2022-08-23T22:44:24;99726.03;;;21.21;68.24
67740;BME280;54536;50.090;14.420;2022-08-23T22:46:56;99723.31;;;21.14;68.93
67740;BME280;54536;50.090;14.420;2022-08-23T22:49:25;99712.88;;;21.19;68.45
67740;BME280;54536;50.090;14.420;2022-08-23T22:51:53;99715.16;;;21.22;68.61
67740;BME280;54536;50.090;14.420;2022-08-23T22:54:22;99715.97;;;21.23;67.94
67740;BME280;54536;50.090;14.420;2022-08-23T22:56:52;99721.13;;;21.24;68.24
67740;BME280;54536;50.090;14.420;2022-08-23T22:59:21;99722.56;;;21.27;68.18
67740;BME280;54536;50.090;14.420;2022-08-23T23:01:51;99717.13;;;21.07;69.17
67740;BME280;54536;50.090;14.420;2022-08-23T23:04:20;99718.16;;;21.06;68.95
67740;BME280;54536;50.090;14.420;2022-08-23T23:06:54;99714.19;;;21.02;69.81
67740;BME280;54536;50.090;14.420;2022-08-23T23:09:21;99712.34;;;21.02;69.25
67740;BME280;54536;50.090;14.420;2022-08-23T23:11:48;99708.88;;;21.09;69.23
67740;BME280;54536;50.090;14.420;2022-08-23T23:14:17;99718.34;;;21.04;69.29
67740;BME280;54536;50.090;14.420;2022-08-23T23:16:51;99721.69;;;21.13;68.56
67740;BME280;54536;50.090;14.420;2022-08-23T23:19:21;99714.66;;;21.12;68.54
67740;BME280;54536;50.090;14.420;2022-08-23T23:22:07;99719.75;;;21.00;69.27
67740;BME280;54536;50.090;14.420;2022-08-23T23:24:37;99720.19;;;21.04;68.98
67740;BME280;54536;50.090;14.420;2022-08-23T23:27:06;99722.25;;;21.09;68.89
67740;BME280;54536;50.090;14.420;2022-08-23T23:29:33;99721.75;;;20.92;69.35
67740;BME280;54536;50.090;14.420;2022-08-23T23:32:04;99718.84;;;20.87;69.35
67740;BME280;54536;50.090;14.420;2022-08-23T23:34:30;99713.34;;;20.95;69.47
67740;BME280;54536;50.090;14.420;2022-08-23T23:37:01;99720.06;;;20.84;69.87
67740;BME280;54536;50.090;14.420;2022-08-23T23:39:30;99721.50;;;20.87;69.48
67740;BME280;54536;50.090;14.420;2022-08-23T23:41:57;99723.97;;;20.88;69.75
67740;BME280;54536;50.090;14.420;2022-08-23T23:44:23;99715.53;;;20.85;69.91
67740;BME280;54536;50.090;14.420;2022-08-23T23:46:51;99716.34;;;20.85;69.74
67740;BME280;54536;50.090;14.420;2022-08-23T23:49:17;99717.41;;;20.91;69.76
67740;BME280;54536;50.090;14.420;2022-08-23T23:51:49;99712.31;;;20.96;69.36
67740;BME280;54536;50.090;14.420;2022-08-23T23:54:17;99709.50;;;21.04;68.80
67740;BME280;54536;50.090;14.420;2022-08-23T23:56:46;99713.34;;;20.95;69.26
67740;BME280;54536;50.090;14.420;2022-08-23T23:59:14;99721.56;;;20.93;69.30
